Ajlune, Washington
Current Conditions -  °F | °C
As of 5:35 PM on Friday 21 Nov 2014 (Local Time) from KCLS Reporting Station
Haze Haze  
Wind Chill: 52°   Ceiling: NA
Heat Index: 52°   Visibility: 2.5mi
Dew Point: 50°   Wind: 16mph
Humidity: 94%   Direction: 200°SSW
Pressure: 29.37"   Gusts: NA
Location:  46.4493°N, 122.435°W
Report Text: KCLS 220135Z AUTO 20014KT 2 1/2SM BR 11/10 A2937 RMK AO2
Loading
Personal Weather Stations






























Interactive Weather Map New forecast layout! Learn more

10-Day Weather Forecast

Advertisements
Track Severe Weather on mobile